Time;durP1;ratioP1;P1;durP2;ratioP2;P2;SDS_P1;SDS_P2;PMS_P1;PMS_P2;Temp;Humidity;BMP_temperature;BMP_pressure;BME280_temperature;BME280_humidity;BME280_pressure;Samples;Min_cycle;Max_cycle;Signal;HPM_P1;HPM_P2
2021/10/09 00:00:28;;;;;;;;;32.33;27.33;;;;;16.15;nan;101798.56;4620837;30;45554;-83
2021/10/09 00:03:21;;;;;;;;;27.33;26.67;;;;;16.08;nan;101783.31;4626569;30;47275;-83
2021/10/09 00:06:36;;;;;;;;;;;;;;;;;;;;;
2021/10/09 00:09:11;;;;;;;;;25.33;24.33;;;;;16.13;nan;101812.84;4620908;30;69133;-84
2021/10/09 00:12:05;;;;;;;;;;;;;;;;;;;;;
2021/10/09 00:14:54;;;;;;;;;26.00;23.00;;;;;16.25;nan;101828.16;4620728;30;74368;-84
2021/10/09 00:21:55;;;;;;;;;;;;;;;;;;;;;
2021/10/09 00:25:00;;;;;;;;;;;;;;;;;;;;;
2021/10/09 00:28:02;;;;;;;;;;;;;;;;;;;;;
2021/10/09 00:31:13;;;;;;;;;;;;;;;;;;;;;
2021/10/09 00:33:51;;;;;;;;;24.00;22.00;;;;;16.02;nan;101826.19;4755987;29;67545;-83
2021/10/09 00:39:48;;;;;;;;;26.00;25.00;;;;;16.24;nan;101821.91;4765206;29;46039;-85
2021/10/09 00:42:40;;;;;;;;;24.67;22.67;;;;;15.94;nan;101780.50;4785610;29;45571;-84
2021/10/09 00:45:31;;;;;;;;;29.67;27.33;;;;;16.22;nan;101821.00;4813152;29;45382;-84
2021/10/09 00:51:31;;;;;;;;;22.33;22.33;;;;;15.80;nan;101791.13;4816539;29;45552;-84
2021/10/09 00:54:18;;;;;;;;;;;;;;;;;;;;;
2021/10/09 00:57:05;;;;;;;;;26.00;23.67;;;;;15.99;nan;101810.06;4836358;29;67958;-84
2021/10/09 01:00:25;;;;;;;;;;;;;;;;;;;;;
2021/10/09 01:03:41;;;;;;;;;21.67;21.00;;;;;16.12;nan;101809.28;4814378;29;73584;-85
2021/10/09 01:13:53;;;;;;;;;;;;;;;;;;;;;
2021/10/09 01:16:49;;;;;;;;;24.33;24.33;;;;;16.02;nan;101788.63;4725708;30;45229;-84
2021/10/09 01:19:35;;;;;;;;;25.00;25.00;;;;;16.12;nan;101814.66;4726673;30;45412;-84
2021/10/09 01:25:39;;;;;;;;;26.33;22.33;;;;;15.70;nan;101780.25;4709241;29;44914;-83
2021/10/09 01:28:31;;;;;;;;;;;;;;;;;;;;;
2021/10/09 01:31:29;;;;;;;;;27.67;27.00;;;;;15.94;nan;101801.09;4706248;30;72915;-85
2021/10/09 01:38:18;;;;;;;;;30.00;27.67;;;;;16.00;nan;101815.44;4720976;30;44913;-84
2021/10/09 01:41:36;;;;;;;;;23.67;22.00;;;;;15.70;nan;101774.91;4706636;30;45564;-85
2021/10/09 01:44:18;;;;;;;;;27.67;24.00;;;;;15.92;nan;101814.47;4673456;30;45463;-84
2021/10/09 01:55:12;;;;;;;;;21.67;21.00;;;;;15.88;nan;101806.41;4631813;30;45505;-85
2021/10/09 01:57:38;;;;;;;;;25.67;21.67;;;;;15.36;nan;101761.13;4570527;31;45610;-84
2021/10/09 02:03:35;;;;;;;;;27.67;27.00;;;;;15.66;nan;101805.25;4641769;30;44858;-84
2021/10/09 02:06:12;;;;;;;;;29.33;27.00;;;;;15.64;nan;101810.59;4656147;30;47667;-84
2021/10/09 02:09:07;;;;;;;;;26.67;25.00;;;;;15.44;nan;101788.03;4613179;30;44765;-84
2021/10/09 02:12:32;;;;;;;;;27.67;25.00;;;;;15.60;nan;101806.06;4624399;30;44954;-85
2021/10/09 02:25:02;;;;;;;;;24.00;22.33;;;;;15.42;nan;101803.19;4695987;30;45929;-84
2021/10/09 02:27:38;;;;;;;;;35.00;30.33;;;;;15.25;nan;101805.66;4736964;29;45401;-85
2021/10/09 02:30:09;;;;;;;;;31.00;30.33;;;;;14.92;nan;101774.91;4758416;29;47975;-85
2021/10/09 02:36:07;;;;;;;;;;;;;;;;;;;;;
2021/10/09 02:38:51;;;;;;;;;;;;;;;;;;;;;
2021/10/09 02:41:30;;;;;;;;;33.00;30.00;;;;;15.12;nan;101807.31;4776861;29;75113;-84
2021/10/09 02:44:14;;;;;;;;;30.00;26.67;;;;;14.82;nan;101749.78;4777751;29;45717;-85
2021/10/09 02:46:52;;;;;;;;;;;;;;;;;;;;;
2021/10/09 02:49:40;;;;;;;;;;;;;;;;;;;;;
2021/10/09 02:55:27;;;;;;;;;34.67;33.00;;;;;14.59;nan;101781.63;4777411;29;44832;-85
2021/10/09 03:11:28;;;;;;;;;;;;;;;;;;;;;
2021/10/09 03:13:54;;;;;;;;;32.33;31.67;;;;;14.51;nan;101807.34;4762301;29;66234;-85
2021/10/09 03:16:30;;;;;;;;;31.00;29.67;;;;;14.53;nan;101779.72;4837108;29;46622;-84
2021/10/09 03:19:10;;;;;;;;;33.00;30.00;;;;;14.60;nan;101810.19;4841076;29;45632;-85
2021/10/09 03:22:14;;;;;;;;;34.67;31.33;;;;;14.70;nan;101804.06;4838981;29;45595;-84
2021/10/09 03:25:06;;;;;;;;;;;;;;;;;;;;;
2021/10/09 03:27:35;;;;;;;;;29.33;29.33;;;;;14.35;nan;101760.72;4855183;29;74251;-84
2021/10/09 03:30:43;;;;;;;;;30.67;29.67;;;;;14.49;nan;101777.88;4855702;29;45208;-84
2021/10/09 03:33:11;;;;;;;;;32.00;28.00;;;;;14.16;nan;101757.75;4856978;29;45343;-85
2021/10/09 03:36:07;;;;;;;;;;;;;;;;;;;;;
2021/10/09 03:38:35;;;;;;;;;36.00;34.00;;;;;14.34;nan;101810.66;4855091;29;75253;-85
2021/10/09 03:45:34;;;;;;;;;26.00;26.00;;;;;14.50;nan;101809.13;4815528;29;45609;-85
2021/10/09 03:54:31;;;;;;;;;;;;;;;;;;;;;
2021/10/09 03:57:00;;;;;;;;;33.00;28.33;;;;;14.16;nan;101756.88;4813429;29;69197;-84
2021/10/09 03:59:28;;;;;;;;;43.67;37.33;;;;;14.06;nan;101753.16;4802061;29;45736;-85
2021/10/09 04:02:00;;;;;;;;;39.33;34.33;;;;;14.13;nan;101756.81;4802215;29;45724;-84
2021/10/09 04:08:31;;;;;;;;;39.33;34.00;;;;;14.18;nan;101760.47;4817058;29;44849;-84
2021/10/09 04:14:48;;;;;;;;;35.67;32.67;;;;;13.97;nan;101747.63;4778987;29;45759;-85
2021/10/09 04:17:37;;;;;;;;;;;;;;;;;;;;;
2021/10/09 04:20:26;;;;;;;;;39.00;32.33;;;;;14.23;nan;101803.34;4777557;29;67936;-85
2021/10/09 04:23:15;;;;;;;;;42.00;36.00;;;;;14.19;nan;101794.34;4785442;29;46052;-84
2021/10/09 04:29:41;;;;;;;;;36.00;32.67;;;;;14.04;nan;101757.56;4656187;30;45543;-85
2021/10/09 04:32:12;;;;;;;;;31.67;31.67;;;;;14.14;nan;101788.06;4654503;30;45784;-84
2021/10/09 04:34:51;;;;;;;;;37.00;31.33;;;;;14.10;nan;101795.13;4640341;30;45523;-85
2021/10/09 04:37:43;;;;;;;;;31.00;28.00;;;;;13.91;nan;101751.09;4639998;30;46737;-84
2021/10/09 04:40:28;;;;;;;;;36.33;34.33;;;;;14.01;nan;101774.44;4654078;30;44918;-85
2021/10/09 04:43:31;;;;;;;;;38.00;33.67;;;;;13.98;nan;101768.16;4654917;30;44847;-84
2021/10/09 04:46:06;;;;;;;;;37.00;31.33;;;;;14.10;nan;101784.41;4640697;30;45693;-85
2021/10/09 04:48:47;;;;;;;;;;;;;;;;;;;;;
2021/10/09 04:51:35;;;;;;;;;41.00;33.00;;;;;14.16;nan;101788.97;4684798;30;72765;-85
2021/10/09 04:54:28;;;;;;;;;41.00;35.67;;;;;14.20;nan;101780.13;4690620;30;45479;-85
2021/10/09 04:57:48;;;;;;;;;;;;;;;;;;;;;
2021/10/09 05:07:16;;;;;;;;;39.33;36.00;;;;;14.01;nan;101741.47;4831909;29;45548;-85
2021/10/09 05:10:12;;;;;;;;;;;;;;;;;;;;;
2021/10/09 05:13:45;;;;;;;;;37.33;35.00;;;;;14.05;nan;101732.59;4831153;29;73872;-83
2021/10/09 05:16:46;;;;;;;;;37.00;32.67;;;;;14.34;nan;101791.00;4773191;29;45271;-84
2021/10/09 05:23:04;;;;;;;;;36.00;34.33;;;;;14.27;nan;101786.47;4723654;30;45535;-85
2021/10/09 05:26:15;;;;;;;;;39.00;35.67;;;;;13.98;nan;101747.66;4708723;30;47050;-85
2021/10/09 05:29:12;;;;;;;;;37.67;34.00;;;;;14.11;nan;101783.53;4688952;30;45607;-84
2021/10/09 05:32:03;;;;;;;;;42.67;35.00;;;;;14.18;nan;101788.13;4689565;30;45579;-83
2021/10/09 05:35:15;;;;;;;;;42.00;37.00;;;;;14.19;nan;101791.69;4680284;30;44965;-85
2021/10/09 05:38:14;;;;;;;;;;;;;;;;;;;;;
2021/10/09 05:41:05;;;;;;;;;;;;;;;;;;;;;
2021/10/09 05:43:45;;;;;;;;;41.67;35.67;;;;;14.05;nan;101804.81;4684201;30;67931;-84
2021/10/09 05:46:24;;;;;;;;;42.00;36.00;;;;;13.71;nan;101764.13;4689818;30;45064;-84
2021/10/09 05:50:11;;;;;;;;;39.67;36.33;;;;;13.80;nan;101758.94;4689700;30;45488;-84
2021/10/09 06:25:15;;;;;;;;;;;;;;;;;;;;;
2021/10/09 06:49:59;;;;;;;;;;;;;;;;;;;;;
2021/10/09 07:06:09;;;;;;;;;47.00;39.33;;;;;14.15;nan;101856.72;4744671;30;45574;-85
2021/10/09 07:09:11;;;;;;;;;;;;;;;;;;;;;
2021/10/09 07:12:06;;;;;;;;;45.67;37.33;;;;;14.39;nan;101873.19;4705718;30;64955;-85
2021/10/09 07:15:44;;;;;;;;;40.00;36.00;;;;;14.47;nan;101884.00;4689918;30;45641;-85
2021/10/09 07:19:23;;;;;;;;;;;;;;;;;;;;;
2021/10/09 07:21:24;;;;;;;;;47.33;40.00;;;;;14.39;nan;101873.19;4589347;31;45550;-85
2021/10/09 07:23:59;;;;;;;;;45.33;38.67;;;;;14.36;nan;101842.78;4588041;31;44918;-85
2021/10/09 07:26:40;;;;;;;;;43.00;37.33;;;;;14.67;nan;101886.16;4588725;31;47933;-85
2021/10/09 07:36:17;;;;;;;;;45.00;38.67;;;;;14.68;nan;101862.06;4556524;31;46012;-85
2021/10/09 07:39:07;;;;;;;;;;;;;;;;;;;;;
2021/10/09 07:41:55;;;;;;;;;;;;;;;;;;;;;
2021/10/09 07:44:46;;;;;;;;;51.00;40.00;;;;;14.73;nan;101857.69;4592755;30;67900;-85
2021/10/09 07:48:09;;;;;;;;;48.67;39.67;;;;;15.10;nan;101910.88;4624328;30;45648;-85
2021/10/09 07:51:27;;;;;;;;;47.67;40.00;;;;;15.12;nan;101899.31;4606439;30;46801;-85
2021/10/09 07:53:59;;;;;;;;;50.67;41.00;;;;;14.64;nan;101872.72;4639734;30;45510;-84
2021/10/09 07:57:05;;;;;;;;;;;;;;;;;;;;;
2021/10/09 07:59:31;;;;;;;;;45.33;38.00;;;;;14.77;nan;101906.84;4691185;30;65024;-85
2021/10/09 08:02:07;;;;;;;;;47.67;39.67;;;;;14.89;nan;101898.09;4687722;30;45560;-84
2021/10/09 08:04:43;;;;;;;;;50.67;41.33;;;;;14.54;nan;101867.19;4687672;30;45694;-84
2021/10/09 08:07:49;;;;;;;;;;;;;;;;;;;;;
2021/10/09 08:11:03;;;;;;;;;44.00;38.33;;;;;14.96;nan;101900.88;4758392;29;65755;-85
2021/10/09 08:13:56;;;;;;;;;;;;;;;;;;;;;
2021/10/09 08:16:48;;;;;;;;;47.33;38.00;;;;;14.91;nan;101888.31;4761221;29;71959;-85
2021/10/09 08:20:15;;;;;;;;;;;;;;;;;;;;;
2021/10/09 08:22:54;;;;;;;;;;;;;;;;;;;;;
2021/10/09 08:35:23;;;;;;;;;50.00;40.67;;;;;15.02;nan;101886.66;4777971;29;45893;-85
2021/10/09 08:40:35;;;;;;;;;;;;;;;;;;;;;
2021/10/09 08:50:43;;;;;;;;;;;;;;;;;;;;;
2021/10/09 08:53:32;;;;;;;;;;;;;;;;;;;;;
2021/10/09 08:56:30;;;;;;;;;51.33;41.67;;;;;15.82;nan;101892.19;4854342;29;68796;-83
2021/10/09 08:59:42;;;;;;;;;56.00;43.00;;;;;15.75;nan;101859.91;4854463;29;45456;-84
2021/10/09 09:02:36;;;;;;;;;50.67;43.33;;;;;16.08;nan;101905.81;4837202;29;46246;-84
2021/10/09 09:32:13;;;;;;;;;53.67;42.67;;;;;16.57;nan;101879.44;4784195;29;45601;-85
2021/10/09 09:35:42;;;;;;;;;;;;;;;;;;;;;
2021/10/09 09:39:17;;;;;;;;;;;;;;;;;;;;;
2021/10/09 09:45:25;;;;;;;;;55.33;45.67;;;;;16.92;nan;101874.31;4744155;30;44888;-84
2021/10/09 09:47:58;;;;;;;;;50.33;41.67;;;;;16.81;nan;101857.25;4727304;30;45832;-84
2021/10/09 09:50:36;;;;;;;;;43.67;36.00;;;;;16.69;nan;101846.41;4741930;29;44890;-85
2021/10/09 10:00:21;;;;;;;;;43.67;34.33;;;;;16.77;nan;101832.13;4660000;30;45968;-84
2021/10/09 10:09:40;;;;;;;;;40.67;35.67;;;;;17.08;nan;101823.34;4656870;30;44913;-84
2021/10/09 10:12:09;;;;;;;;;40.67;34.33;;;;;17.04;nan;101834.97;4655616;30;44852;-83
2021/10/09 10:19:02;;;;;;;;;43.00;35.33;;;;;17.59;nan;101859.38;4682826;30;46548;-83
2021/10/09 10:25:26;;;;;;;;;;;;;;;;;;;;;
2021/10/09 10:29:17;;;;;;;;;;;;;;;;;;;;;
2021/10/09 10:31:15;;;;;;;;;35.33;33.67;;;;;17.39;nan;101811.84;4683414;30;45524;-84
2021/10/09 10:34:17;;;;;;;;;43.00;36.33;;;;;17.98;nan;101863.13;4721900;29;45500;-84
2021/10/09 10:37:31;;;;;;;;;40.67;36.33;;;;;17.98;nan;101860.41;4781422;29;45306;-84
2021/10/09 10:40:44;;;;;;;;;;;;;;;;;;;;;
2021/10/09 10:43:48;;;;;;;;;37.00;34.33;;;;;18.03;nan;101855.91;4780575;29;73970;-84
2021/10/09 11:04:48;;;;;;;;;;;;;;;;;;;;;
2021/10/09 11:07:39;;;;;;;;;28.33;26.33;;;;;18.17;nan;101837.09;4618968;30;64975;-84
2021/10/09 11:10:18;;;;;;;;;38.00;32.33;;;;;18.06;nan;101812.88;4617570;30;46829;-84
2021/10/09 11:20:14;;;;;;;;;34.67;30.67;;;;;18.64;nan;101848.72;4620204;30;45503;-83
2021/10/09 11:26:31;;;;;;;;;35.00;28.67;;;;;18.33;nan;101805.66;4653147;30;45628;-83
2021/10/09 11:32:50;;;;;;;;;30.33;28.67;;;;;18.37;nan;101811.03;4636402;30;45490;-84
2021/10/09 11:38:33;;;;;;;;;27.33;26.67;;;;;18.73;nan;101844.22;4706475;30;45507;-83
2021/10/09 11:41:40;;;;;;;;;30.00;27.67;;;;;18.80;nan;101839.75;4692780;30;45092;-85
2021/10/09 11:57:47;;;;;;;;;22.33;18.00;;;;;18.89;nan;101826.25;4781615;29;45594;-84
2021/10/09 12:00:50;;;;;;;;;;;;;;;;;;;;;
2021/10/09 12:07:27;;;;;;;;;;;;;;;;;;;;;
2021/10/09 12:10:32;;;;;;;;;23.67;23.00;;;;;18.64;nan;101784.94;4750883;29;45386;-84
2021/10/09 12:19:56;;;;;;;;;24.67;22.67;;;;;18.90;nan;101771.41;4762379;29;44806;-84
2021/10/09 12:22:52;;;;;;;;;;;;;;;;;;;;;
2021/10/09 12:29:51;;;;;;;;;23.00;22.33;;;;;19.31;nan;101796.41;4777835;29;45786;-84
2021/10/09 12:32:27;;;;;;;;;23.67;21.33;;;;;19.26;nan;101812.63;4759651;29;45554;-85
2021/10/09 12:35:38;;;;;;;;;21.33;21.00;;;;;19.33;nan;101795.50;4761135;29;45860;-84
2021/10/09 12:42:31;;;;;;;;;;;;;;;;;;;;;
2021/10/09 12:45:05;;;;;;;;;23.00;23.00;;;;;19.25;nan;101762.28;4780080;29;68018;-84
2021/10/09 12:48:14;;;;;;;;;20.33;20.33;;;;;19.39;nan;101773.00;4813981;29;45523;-84
2021/10/09 12:51:00;;;;;;;;;;;;;;;;;;;;;
2021/10/09 12:53:58;;;;;;;;;20.67;19.33;;;;;19.46;nan;101785.53;4759064;29;71256;-84
2021/10/09 12:56:50;;;;;;;;;25.00;23.33;;;;;19.55;nan;101782.78;4760508;29;44814;-84
2021/10/09 12:59:18;;;;;;;;;23.67;21.67;;;;;19.31;nan;101739.75;4760197;29;45445;-84
2021/10/09 13:01:46;;;;;;;;;22.00;21.33;;;;;19.26;nan;101742.50;4759524;29;47115;-84
2021/10/09 13:04:35;;;;;;;;;22.33;22.33;;;;;19.63;nan;101785.41;4744846;29;45394;-84
2021/10/09 13:07:34;;;;;;;;;25.67;23.00;;;;;19.58;nan;101777.38;4773332;29;44789;-84
2021/10/09 13:10:45;;;;;;;;;26.33;24.00;;;;;19.39;nan;101740.63;4778583;29;45550;-84
2021/10/09 13:13:10;;;;;;;;;21.67;20.67;;;;;19.11;nan;101727.31;4776420;29;45353;-84
2021/10/09 13:16:29;;;;;;;;;;;;;;;;;;;;;
2021/10/09 13:19:53;;;;;;;;;25.00;21.67;;;;;19.74;nan;101770.09;4776937;29;68190;-84
2021/10/09 13:22:56;;;;;;;;;22.67;22.67;;;;;19.73;nan;101773.72;4724439;30;45401;-84
2021/10/09 13:29:28;;;;;;;;;21.00;20.00;;;;;19.61;nan;101730.56;4759493;29;44872;-84
2021/10/09 13:32:02;;;;;;;;;19.67;19.00;;;;;19.76;nan;101749.38;4728061;30;45152;-84
2021/10/09 13:34:37;;;;;;;;;;;;;;;;;;;;;
2021/10/09 13:37:18;;;;;;;;;;;;;;;;;;;;;
2021/10/09 13:40:08;;;;;;;;;;;;;;;;;;;;;
2021/10/09 13:42:37;;;;;;;;;22.67;22.67;;;;;19.59;nan;101729.69;4739510;30;68809;-83
2021/10/09 13:45:11;;;;;;;;;23.33;22.00;;;;;19.85;nan;101759.19;4739482;30;44861;-84
2021/10/09 13:47:46;;;;;;;;;22.00;21.67;;;;;19.66;nan;101723.34;4738084;30;45637;-82
2021/10/09 13:50:28;;;;;;;;;22.00;20.67;;;;;19.75;nan;101717.91;4741649;30;45496;-83
2021/10/09 13:53:28;;;;;;;;;;;;;;;;;;;;;
2021/10/09 13:56:27;;;;;;;;;;;;;;;;;;;;;
2021/10/09 13:59:07;;;;;;;;;23.67;22.00;;;;;19.75;nan;101723.31;4774162;29;74391;-84
2021/10/09 14:01:35;;;;;;;;;26.00;23.00;;;;;19.85;nan;101742.13;4792599;29;45584;-84
2021/10/09 14:04:17;;;;;;;;;;;;;;;;;;;;;
2021/10/09 14:06:50;;;;;;;;;20.00;18.67;;;;;19.64;nan;101717.06;4791894;29;66597;-83
2021/10/09 14:09:50;;;;;;;;;11.33;11.33;;;;;19.64;nan;101724.28;4814078;29;48092;-84
2021/10/09 14:12:21;;;;;;;;;20.00;18.33;;;;;19.76;nan;101722.38;4815899;29;45343;-84
2021/10/09 14:15:11;;;;;;;;;;;;;;;;;;;;;
2021/10/09 14:17:42;;;;;;;;;23.33;22.00;;;;;19.99;nan;101748.28;4831800;29;66572;-83
2021/10/09 14:20:33;;;;;;;;;20.33;20.33;;;;;19.90;nan;101724.09;4815890;29;46861;-83
2021/10/09 14:23:31;;;;;;;;;19.00;17.67;;;;;19.82;nan;101701.66;4831703;29;44824;-84
2021/10/09 14:26:14;;;;;;;;;21.67;19.33;;;;;19.90;nan;101702.50;4833828;29;45897;-84
2021/10/09 14:28:58;;;;;;;;;;;;;;;;;;;;;
2021/10/09 14:31:34;;;;;;;;;18.33;16.67;;;;;19.81;nan;101697.16;4831531;29;74634;-84
2021/10/09 14:34:32;;;;;;;;;18.33;18.33;;;;;19.94;nan;101713.25;4847452;29;45407;-84
2021/10/09 14:37:35;;;;;;;;;22.00;21.33;;;;;20.09;nan;101736.50;4850612;29;45818;-84
2021/10/09 14:40:13;;;;;;;;;21.67;20.00;;;;;20.06;nan;101732.94;4845081;29;44891;-83
2021/10/09 14:43:04;;;;;;;;;24.33;23.33;;;;;20.02;nan;101729.38;4834527;29;46850;-84
2021/10/09 14:49:40;;;;;;;;;12.33;11.33;;;;;19.90;nan;101703.38;4851718;29;45368;-84
2021/10/09 14:53:51;;;;;;;;;21.33;19.00;;;;;20.31;nan;101737.16;4852282;29;45548;-83
2021/10/09 15:01:10;;;;;;;;;19.00;17.67;;;;;19.98;nan;101679.00;4850451;29;45477;-84
2021/10/09 15:19:40;;;;;;;;;19.00;17.00;;;;;20.17;nan;101723.81;4751783;29;45550;-85
2021/10/09 15:22:10;;;;;;;;;15.33;15.33;;;;;20.11;nan;101709.47;4762084;29;45715;-85
2021/10/09 15:24:38;;;;;;;;;20.00;17.67;;;;;19.86;nan;101692.63;4746304;29;44894;-85
2021/10/09 15:27:22;;;;;;;;;17.67;17.67;;;;;19.85;nan;101682.72;4761057;29;45665;-84
2021/10/09 15:30:30;;;;;;;;;5.00;4.00;;;;;20.15;nan;101724.75;4759802;29;45604;-84
2021/10/09 15:33:04;;;;;;;;;17.00;17.00;;;;;19.90;nan;101695.28;4756541;29;45878;-84
2021/10/09 15:42:35;;;;;;;;;20.33;18.67;;;;;20.07;nan;101699.63;4745936;29;45784;-85
2021/10/09 15:45:30;;;;;;;;;21.67;19.00;;;;;19.97;nan;101688.88;4744620;29;45705;-84
2021/10/09 15:48:21;;;;;;;;;23.67;20.33;;;;;20.11;nan;101702.25;4743020;29;45686;-85
2021/10/09 15:54:37;;;;;;;;;17.67;15.67;;;;;20.15;nan;101722.94;4800699;29;45903;-84
2021/10/09 15:57:36;;;;;;;;;;;;;;;;;;;;;
2021/10/09 16:07:16;;;;;;;;;19.33;17.67;;;;;20.18;nan;101725.59;4853184;29;45993;-85
2021/10/09 16:10:22;;;;;;;;;;;;;;;;;;;;;
2021/10/09 16:13:16;;;;;;;;;;;;;;;;;;;;;
2021/10/09 16:15:58;;;;;;;;;;;;;;;;;;;;;
2021/10/09 16:18:41;;;;;;;;;;;;;;;;;;;;;
2021/10/09 16:21:10;;;;;;;;;20.00;19.00;;;;;19.61;nan;101700.00;4850508;29;72631;-84
2021/10/09 16:30:36;;;;;;;;;24.00;22.67;;;;;19.88;nan;101707.00;4844979;29;45916;-84
2021/10/09 16:33:44;;;;;;;;;;;;;;;;;;;;;
2021/10/09 16:40:03;;;;;;;;;;;;;;;;;;;;;
2021/10/09 16:43:08;;;;;;;;;;;;;;;;;;;;;
2021/10/09 16:46:07;;;;;;;;;21.33;19.00;;;;;19.63;nan;101706.28;4832170;29;72016;-85
2021/10/09 16:51:45;;;;;;;;;20.33;20.00;;;;;19.55;nan;101692.84;4812537;29;45660;-85
2021/10/09 16:54:20;;;;;;;;;23.00;19.67;;;;;19.51;nan;101737.84;4801056;29;46867;-85
2021/10/09 16:56:51;;;;;;;;;21.33;21.33;;;;;19.55;nan;101722.50;4797705;29;45475;-85
2021/10/09 16:59:28;;;;;;;;;22.00;22.00;;;;;19.57;nan;101742.28;4797942;29;45984;-85
2021/10/09 17:05:47;;;;;;;;;22.67;19.00;;;;;19.09;nan;101714.75;4815458;29;45692;-85
2021/10/09 17:08:52;;;;;;;;;25.00;23.00;;;;;19.29;nan;101729.00;4779026;29;45522;-85
2021/10/09 17:11:50;;;;;;;;;;;;;;;;;;;;;
2021/10/09 17:14:39;;;;;;;;;24.33;22.00;;;;;19.08;nan;101713.81;4754399;29;66251;-85
2021/10/09 17:17:28;;;;;;;;;23.00;21.00;;;;;19.31;nan;101753.25;4761142;29;46774;-85
2021/10/09 17:20:52;;;;;;;;;22.67;20.00;;;;;19.24;nan;101749.69;4755776;29;45524;-85
2021/10/09 17:27:17;;;;;;;;;25.33;24.67;;;;;18.88;nan;101715.72;4703876;30;45055;-85
2021/10/09 17:30:22;;;;;;;;;;;;;;;;;;;;;
2021/10/09 17:36:55;;;;;;;;;;;;;;;;;;;;;
2021/10/09 17:43:18;;;;;;;;;;;;;;;;;;;;;
2021/10/09 17:53:29;;;;;;;;;;;;;;;;;;;;;
2021/10/09 18:00:07;;;;;;;;;24.00;22.33;;;;;18.50;nan;101744.59;4779324;29;45491;-86
2021/10/09 18:03:02;;;;;;;;;26.67;25.33;;;;;18.47;nan;101739.22;4780365;29;45605;-85
2021/10/09 18:05:41;;;;;;;;;33.33;28.00;;;;;18.67;nan;101784.97;4815205;29;45571;-86
2021/10/09 18:08:56;;;;;;;;;;;;;;;;;;;;;
2021/10/09 18:11:30;;;;;;;;;34.33;29.33;;;;;18.25;nan;101759.00;4811989;29;71913;-85
2021/10/09 18:14:23;;;;;;;;;;;;;;;;;;;;;
2021/10/09 18:17:10;;;;;;;;;33.67;29.33;;;;;18.59;nan;101786.78;4812048;29;65781;-84
2021/10/09 18:19:46;;;;;;;;;;;;;;;;;;;;;
2021/10/09 18:23:18;;;;;;;;;;;;;;;;;;;;;
2021/10/09 18:26:08;;;;;;;;;31.67;28.67;;;;;18.30;nan;101730.25;4812980;29;68834;-84
2021/10/09 18:28:48;;;;;;;;;28.33;28.33;;;;;18.51;nan;101788.59;4798220;29;45591;-84
2021/10/09 18:32:04;;;;;;;;;33.00;30.00;;;;;18.53;nan;101789.47;4852497;29;46888;-84
2021/10/09 18:34:40;;;;;;;;;29.00;29.00;;;;;18.25;nan;101745.53;4837567;29;45395;-84
2021/10/09 18:40:55;;;;;;;;;33.00;28.00;;;;;18.22;nan;101749.16;4816432;29;45481;-85
2021/10/09 18:43:59;;;;;;;;;30.67;28.00;;;;;18.17;nan;101757.19;4797211;29;45443;-84
2021/10/09 18:46:56;;;;;;;;;31.67;29.67;;;;;18.33;nan;101790.41;4817582;29;45544;-84
2021/10/09 18:53:20;;;;;;;;;;;;;;;;;;;;;
2021/10/09 18:59:28;;;;;;;;;33.00;32.00;;;;;18.01;nan;101746.47;4819605;29;45655;-83
2021/10/09 19:01:57;;;;;;;;;33.67;32.33;;;;;17.84;nan;101768.00;4839936;29;45354;-84
2021/10/09 19:04:37;;;;;;;;;35.00;32.33;;;;;17.87;nan;101758.13;4838368;29;45509;-85
2021/10/09 19:07:09;;;;;;;;;34.33;30.33;;;;;18.19;nan;101802.97;4840601;29;45511;-84
2021/10/09 19:10:54;;;;;;;;;31.67;30.67;;;;;18.02;nan;101773.38;4854576;29;44782;-84
2021/10/09 19:14:29;;;;;;;;;;;;;;;;;;;;;
2021/10/09 19:16:51;;;;;;;;;38.33;34.00;;;;;17.84;nan;101790.44;4797961;29;45447;-85
2021/10/09 19:19:37;;;;;;;;;38.00;33.00;;;;;17.92;nan;101785.06;4797732;29;45705;-84
2021/10/09 19:22:43;;;;;;;;;34.67;30.67;;;;;18.14;nan;101826.34;4781122;29;45456;-85
2021/10/09 19:26:27;;;;;;;;;;;;;;;;;;;;;
2021/10/09 19:33:02;;;;;;;;;;;;;;;;;;;;;
2021/10/09 19:36:05;;;;;;;;;36.67;32.67;;;;;17.80;nan;101794.88;4689027;30;73319;-83
2021/10/09 19:38:41;;;;;;;;;46.00;37.33;;;;;17.96;nan;101816.47;4691361;30;45660;-84
2021/10/09 19:41:45;;;;;;;;;;;;;;;;;;;;;
2021/10/09 19:44:40;;;;;;;;;41.33;36.67;;;;;17.86;nan;101815.53;4690592;30;75054;-84
2021/10/09 19:47:50;;;;;;;;;43.33;36.67;;;;;17.97;nan;101832.59;4709866;30;45483;-84
2021/10/09 19:51:04;;;;;;;;;41.67;37.00;;;;;17.72;nan;101801.16;4710083;30;45908;-84
2021/10/09 19:53:42;;;;;;;;;46.67;36.00;;;;;17.63;nan;101790.34;4722715;30;45723;-84
2021/10/09 19:57:39;;;;;;;;;45.00;39.00;;;;;17.90;nan;101848.75;4722034;30;45443;-84
2021/10/09 19:59:44;;;;;;;;;48.00;39.00;;;;;17.82;nan;101845.13;4709814;30;45095;-85
2021/10/09 20:02:18;;;;;;;;;42.33;37.67;;;;;17.44;nan;101805.56;4744855;29;45630;-84
2021/10/09 20:09:28;;;;;;;;;;;;;;;;;;;;;
2021/10/09 20:15:31;;;;;;;;;50.50;43.00;;;;;17.26;nan;101828.81;4690202;30;45512;-84
2021/10/09 20:18:00;;;;;;;;;62.00;49.25;;;;;17.26;nan;101844.03;4692276;30;45586;-84
2021/10/09 20:20:53;;;;;;;;;59.50;48.25;;;;;17.19;nan;101821.63;4712406;30;45664;-85
2021/10/09 20:23:29;;;;;;;;;48.00;40.50;;;;;16.90;nan;101824.16;4725920;29;45366;-85
2021/10/09 20:26:19;;;;;;;;;;;;;;;;;;;;;
2021/10/09 20:29:00;;;;;;;;;53.25;44.75;;;;;17.09;nan;101852.03;4724515;30;64955;-84
2021/10/09 20:31:28;;;;;;;;;60.50;48.00;;;;;16.89;nan;101850.13;4695866;30;47025;-85
2021/10/09 20:34:00;;;;;;;;;57.50;47.50;;;;;17.03;nan;101874.41;4725352;30;45825;-84
2021/10/09 20:37:09;;;;;;;;;58.25;47.75;;;;;16.66;nan;101839.19;4726097;30;45753;-84
2021/10/09 20:40:11;;;;;;;;;;;;;;;;;;;;;
2021/10/09 20:43:30;;;;;;;;;;;;;;;;;;;;;
2021/10/09 20:46:32;;;;;;;;;;;;;;;;;;;;;
2021/10/09 20:50:12;;;;;;;;;;;;;;;;;;;;;
2021/10/09 20:53:28;;;;;;;;;;;;;;;;;;;;;
2021/10/09 20:56:41;;;;;;;;;57.75;48.25;;;;;16.40;nan;101865.84;4722553;30;74334;-85
2021/10/09 20:59:17;;;;;;;;;58.00;48.25;;;;;16.34;nan;101865.81;4716562;30;45447;-85
2021/10/09 21:02:11;;;;;;;;;;;;;;;;;;;;;
2021/10/09 21:04:59;;;;;;;;;57.00;44.75;;;;;16.45;nan;101892.78;4724336;30;65266;-84
2021/10/09 21:07:40;;;;;;;;;56.25;44.50;;;;;16.02;nan;101841.38;4750127;29;45621;-84
2021/10/09 21:14:31;;;;;;;;;55.00;45.00;;;;;16.29;nan;101892.63;4760605;29;45998;-84
2021/10/09 21:24:30;;;;;;;;;;;;;;;;;;;;;
2021/10/09 21:27:28;;;;;;;;;53.00;44.33;;;;;16.08;nan;101896.03;4796141;29;67502;-85
2021/10/09 21:30:12;;;;;;;;;53.00;41.50;;;;;15.88;nan;101900.28;4795409;29;45119;-84
2021/10/09 21:32:57;;;;;;;;;;;;;;;;;;;;;
2021/10/09 21:35:38;;;;;;;;;55.25;46.00;;;;;15.93;nan;101901.22;4853250;29;71537;-85
2021/10/09 21:41:27;;;;;;;;;57.00;46.50;;;;;15.87;nan;101906.53;4837089;29;45537;-85
2021/10/09 21:48:07;;;;;;;;;57.75;47.00;;;;;15.55;nan;101856.06;4819263;29;45589;-84
2021/10/09 21:55:04;;;;;;;;;;;;;;;;;;;;;
2021/10/09 21:58:44;;;;;;;;;53.67;44.00;;;;;15.62;nan;101881.19;4814424;29;74622;-84
2021/10/09 22:17:16;;;;;;;;;53.50;43.50;;;;;15.32;nan;101839.72;4713397;30;45591;-84
2021/10/09 22:33:01;;;;;;;;;;;;;;;;;;;;;
2021/10/09 22:36:00;;;;;;;;;;;;;;;;;;;;;
2021/10/09 22:38:34;;;;;;;;;53.67;43.00;;;;;15.25;nan;101841.44;4711868;30;73146;-84
2021/10/09 22:41:06;;;;;;;;;51.75;43.50;;;;;15.24;nan;101839.63;4696436;30;45363;-84
2021/10/09 22:44:02;;;;;;;;;;;;;;;;;;;;;
2021/10/09 22:46:39;;;;;;;;;53.00;43.50;;;;;15.02;nan;101838.44;4738847;29;45598;-85
2021/10/09 22:50:19;;;;;;;;;;;;;;;;;;;;;
2021/10/09 22:53:12;;;;;;;;;52.00;42.33;;;;;15.21;nan;101839.59;4757782;29;69230;-85
2021/10/09 22:56:13;;;;;;;;;53.00;43.00;;;;;15.39;nan;101885.38;4817548;29;45907;-85
2021/10/09 22:59:08;;;;;;;;;;;;;;;;;;;;;
2021/10/09 23:01:37;;;;;;;;;53.00;43.00;;;;;15.10;nan;101847.47;4838864;29;72738;-85
2021/10/09 23:04:21;;;;;;;;;52.67;44.33;;;;;15.13;nan;101850.22;4838595;29;45712;-85
2021/10/09 23:07:36;;;;;;;;;55.75;47.50;;;;;15.12;nan;101840.34;4822766;29;45880;-86
2021/10/09 23:18:28;;;;;;;;;58.25;47.25;;;;;15.16;nan;101868.09;4899546;23;45853;-85
2021/10/09 23:21:31;;;;;;;;;58.00;46.25;;;;;15.14;nan;101869.84;4874178;29;46713;-85
2021/10/09 23:24:22;;;;;;;;;51.50;42.25;;;;;15.16;nan;101877.03;4872934;28;45412;-86
2021/10/09 23:26:56;;;;;;;;;60.50;48.50;;;;;15.00;nan;101893.78;4866629;29;44765;-85
2021/10/09 23:30:04;;;;;;;;;;;;;;;;;;;;;
2021/10/09 23:32:45;;;;;;;;;50.33;42.67;;;;;14.67;nan;101844.22;4871382;29;74415;-84
2021/10/09 23:35:22;;;;;;;;;50.00;42.33;;;;;15.04;nan;101874.19;4871059;29;45519;-84